EDDP/LEJ METAR and TAF weather

Enter ICAO airport designator
Station Type Date Time Source
EDDP METAR 2020/02/20 23:20 UTC NOAA

EDDP 202320Z 22019KT 9999 -RA BKN030 07/03 Q1009 TEMPO 21015G30KT


Station Type Date Time Source
EDDP Decoded METAR 2020/02/20 23:20 UTC NOAA

Leipzig-Schkeuditz, Germany (EDDP) 51-25N 012-14E 149M
Feb 20, 2020 - 06:20 PM EST / 2020.02.20 2320 UTC
Wind: from the SW (220 degrees) at 22 MPH (19 KT):0
Visibility: greater than 7 mile(s):0
Sky conditions: mostly cloudy
Weather: light rain
Temperature: 44 F (7 C)
Dew Point: 37 F (3 C)
Relative Humidity: 75%
Pressure (altimeter): 29.80 in. Hg (1009 hPa)
ob: EDDP 202320Z 22019KT 9999 -RA BKN030 07/03 Q1009 TEMPO 21015G30KT
cycle: 23

Station Type Date Time Source
EDDP TAF 2020/02/20 18:53 UTC NOAA

TAF
AMD EDDP 201843Z 2018/2118 19013KT 9999 SCT030 PROB30
TEMPO 2022/2101 RA
BECMG 2023/2101 21015G25KT
BECMG 2101/2103 29020G45KT RA BKN012 PROB30
TEMPO 2101/2105 4000 SHRAGS BKN008 BKN015CB
BECMG 2103/2106 28015G30KT NSW BKN020
BECMG 2115/2118 24008KT

Example: see airport list